IUA weather

Canandaigua Airport
Ontario County IDA, New York, United States

Public forecast

Using degrees Fahrenheit for public forecast. Weather courtesy of forecast.io.

Closest aviation weather report (METAR) to Canandaigua Airport

Closest report is Greater Rochester International Airport, 19.8 nm (36.6 km) NW. Retrieved 2019/10/18 23:54 UTC (42 minutes ago):

KROC 182354Z 22003KT 10SM FEW035 FEW250 06/03 A3004 RMK AO2 SLP178 T00560028 10117 20056 53010

Closest aviation forecast (TAF) to Canandaigua Airport

Closest forecast is Greater Rochester International Airport, 19.8 nm (36.6 km) NW. Retrieved 2019-10-19 00:34 UTC (2 minutes ago):

TAF KROC 182332Z 1900/1924 29004KT P6SM SCT040 FM190500 VRB03KT P6SM SKC